createdAt,value
2019-03-25T00:02:30.306Z,31.33
2019-03-25T00:05:20.544Z,31.53
2019-03-25T00:08:03.496Z,31.17
2019-03-25T00:10:54.152Z,32.20
2019-03-25T00:13:37.513Z,31.10
2019-03-25T00:16:46.616Z,31.90
2019-03-25T00:19:28.572Z,32.33
2019-03-25T00:22:11.124Z,30.87
2019-03-25T00:25:01.884Z,31.97
2019-03-25T00:27:33.429Z,31.80
2019-03-25T00:30:26.003Z,30.83
2019-03-25T00:33:09.265Z,31.07
2019-03-25T00:35:59.580Z,33.50
2019-03-25T00:38:42.988Z,33.37
2019-03-25T00:41:33.288Z,34.00
2019-03-25T00:44:16.952Z,34.10
2019-03-25T00:47:07.322Z,34.23
2019-03-25T00:49:50.660Z,33.93
2019-03-25T00:52:40.984Z,33.30
2019-03-25T00:55:23.716Z,33.03
2019-03-25T00:58:14.010Z,31.90
2019-03-25T01:00:56.547Z,32.90
2019-03-25T01:03:46.782Z,30.00
2019-03-25T01:06:29.588Z,32.67
2019-03-25T01:09:19.856Z,31.77
2019-03-25T01:12:02.826Z,31.30
2019-03-25T01:14:53.086Z,32.17
2019-03-25T01:17:35.498Z,30.87
2019-03-25T01:23:20.754Z,32.23
2019-03-25T01:26:21.959Z,31.40
2019-03-25T01:29:04.498Z,30.77
2019-03-25T01:31:54.746Z,31.87
2019-03-25T01:34:37.865Z,33.67
2019-03-25T01:37:28.127Z,33.37
2019-03-25T01:40:10.939Z,32.60
2019-03-25T01:43:01.163Z,32.43
2019-03-25T01:45:51.405Z,32.80
2019-03-25T01:48:34.324Z,32.27
2019-03-25T01:51:24.671Z,32.03
2019-03-25T01:54:14.973Z,31.83
2019-03-25T01:57:05.246Z,32.77
2019-03-25T01:59:55.546Z,31.63
2019-03-25T02:02:45.840Z,32.67
2019-03-25T02:05:36.091Z,33.87
2019-03-25T02:08:18.442Z,32.70
2019-03-25T02:11:08.753Z,31.70
2019-03-25T02:13:59.059Z,31.90
2019-03-25T02:16:49.409Z,31.93
2019-03-25T02:19:31.765Z,33.33
2019-03-25T02:22:14.214Z,31.33
2019-03-25T02:25:04.641Z,33.50
2019-03-25T02:28:06.133Z,33.13
2019-03-25T02:30:48.707Z,32.63
2019-03-25T02:33:38.942Z,32.83
2019-03-25T02:39:13.806Z,32.60
2019-03-25T02:42:04.041Z,34.10
2019-03-25T02:44:46.515Z,33.20
2019-03-25T02:47:36.779Z,33.30
2019-03-25T02:50:19.509Z,32.27
2019-03-25T02:53:09.781Z,33.13
2019-03-25T02:55:52.385Z,32.83
2019-03-25T02:58:42.657Z,32.20
2019-03-25T03:01:25.208Z,31.63
2019-03-25T03:04:15.530Z,32.47
2019-03-25T03:06:58.492Z,33.93
2019-03-25T03:09:41.590Z,32.00
2019-03-25T03:12:31.916Z,32.27
2019-03-25T03:15:22.213Z,32.97
2019-03-25T03:18:12.716Z,33.87
2019-03-25T03:21:03.040Z,32.57
2019-03-25T03:24:04.450Z,33.60
2019-03-25T03:26:35.933Z,32.00
2019-03-25T03:29:26.224Z,32.87
2019-03-25T03:32:09.362Z,33.70
2019-03-25T03:34:59.627Z,32.47
2019-03-25T03:37:49.900Z,33.53
2019-03-25T03:40:33.008Z,33.90
2019-03-25T03:43:23.334Z,33.87
2019-03-25T03:46:13.626Z,33.50
2019-03-25T03:49:03.884Z,34.17
2019-03-25T03:55:11.300Z,34.00
2019-03-25T03:57:54.387Z,34.77
2019-03-25T04:00:44.728Z,34.57
2019-03-25T04:03:35.241Z,33.73
2019-03-25T04:06:25.621Z,33.67
2019-03-25T04:09:15.902Z,34.50
2019-03-25T04:15:09.486Z,34.67
2019-03-25T04:17:51.782Z,33.77
2019-03-25T04:20:42.060Z,35.03
2019-03-25T04:23:32.437Z,34.17
2019-03-25T04:26:29.132Z,35.57
2019-03-25T04:29:08.379Z,35.27
2019-03-25T04:31:50.711Z,34.53
2019-03-25T04:37:36.176Z,35.33
2019-03-25T04:40:26.448Z,36.20
2019-03-25T04:43:16.763Z,35.33
2019-03-25T04:48:44.331Z,34.07
2019-03-25T04:51:34.683Z,36.73
2019-03-25T04:54:36.520Z,35.03
2019-03-25T04:57:19.885Z,35.00
2019-03-25T05:03:23.513Z,34.47
2019-03-25T05:06:06.301Z,35.63
2019-03-25T05:08:56.677Z,34.83
2019-03-25T05:11:46.998Z,34.83
2019-03-25T05:14:37.310Z,35.17
2019-03-25T05:17:27.566Z,35.87
2019-03-25T05:20:17.873Z,37.00
2019-03-25T05:23:01.811Z,35.63
2019-03-25T05:25:52.267Z,34.43
2019-03-25T05:28:42.706Z,35.07
2019-03-25T05:31:33.025Z,36.30
2019-03-25T05:34:23.332Z,35.67
2019-03-25T05:37:13.633Z,34.53
2019-03-25T05:40:04.111Z,34.70
2019-03-25T05:42:54.397Z,33.50
2019-03-25T05:45:44.691Z,34.90
2019-03-25T05:51:36.188Z,34.53
2019-03-25T05:54:26.521Z,35.90
2019-03-25T05:57:16.973Z,35.63
2019-03-25T06:03:02.629Z,34.53
2019-03-25T06:06:03.878Z,34.13
2019-03-25T06:08:46.417Z,34.40
2019-03-25T06:11:36.669Z,34.70
2019-03-25T06:14:19.877Z,34.97
2019-03-25T06:17:10.116Z,34.23
2019-03-25T06:19:52.393Z,35.37
2019-03-25T06:22:42.669Z,34.43
2019-03-25T06:25:25.052Z,35.17
2019-03-25T06:28:15.282Z,33.33
2019-03-25T06:30:57.423Z,34.40
2019-03-25T06:33:47.702Z,34.57
2019-03-25T06:36:30.630Z,33.00
2019-03-25T06:39:20.908Z,33.10
2019-03-25T06:42:03.968Z,34.37
2019-03-25T06:44:54.228Z,33.40
2019-03-25T06:47:37.286Z,32.13
2019-03-25T06:50:27.565Z,32.77
2019-03-25T06:53:10.166Z,32.17
2019-03-25T06:59:06.352Z,33.93
2019-03-25T07:01:51.631Z,33.87
2019-03-25T07:04:34.430Z,34.73
2019-03-25T07:07:24.775Z,36.90
2019-03-25T07:10:07.924Z,33.87
2019-03-25T07:12:58.226Z,34.47
2019-03-25T07:15:41.287Z,33.73
2019-03-25T07:18:31.567Z,31.40
2019-03-25T07:21:15.766Z,31.73
2019-03-25T07:24:06.140Z,30.53
2019-03-25T07:26:48.970Z,31.73
2019-03-25T07:29:39.240Z,33.27
2019-03-25T07:32:29.524Z,32.17
2019-03-25T07:35:12.563Z,30.43
2019-03-25T07:41:06.548Z,28.73
2019-03-25T07:43:56.876Z,28.47
2019-03-25T07:46:47.161Z,27.43
2019-03-25T07:49:37.478Z,28.20
2019-03-25T07:52:27.824Z,25.87
2019-03-25T07:55:18.089Z,25.63
2019-03-25T07:58:08.389Z,22.37
2019-03-25T08:00:58.619Z,21.40
2019-03-25T08:03:41.911Z,22.80
2019-03-25T08:06:32.201Z,20.47
2019-03-25T08:09:15.396Z,20.07
2019-03-25T08:12:05.700Z,21.13
2019-03-25T08:14:49.821Z,21.70
2019-03-25T08:17:58.889Z,18.77
2019-03-25T08:20:41.112Z,17.80
2019-03-25T08:23:31.414Z,19.77
2019-03-25T08:26:15.727Z,18.17
2019-03-25T08:32:19.867Z,16.03
2019-03-25T08:35:10.211Z,15.87
2019-03-25T08:38:00.673Z,15.17
2019-03-25T08:40:51.059Z,15.40
2019-03-25T08:43:41.520Z,15.33
2019-03-25T08:46:31.847Z,15.00
2019-03-25T08:49:22.367Z,12.67
2019-03-25T08:52:12.763Z,12.67
2019-03-25T08:55:03.123Z,12.40
2019-03-25T08:57:53.461Z,12.67
2019-03-25T09:00:43.925Z,11.83
2019-03-25T09:08:57.611Z,7.27
2019-03-25T09:11:47.916Z,6.50
2019-03-25T09:14:38.355Z,5.83
2019-03-25T09:17:28.671Z,5.90
2019-03-25T09:20:30.384Z,5.47
2019-03-25T09:23:13.369Z,6.90
2019-03-25T09:29:00.263Z,6.10
2019-03-25T09:31:50.619Z,6.70
2019-03-25T09:34:40.925Z,8.00
2019-03-25T09:37:23.211Z,6.73
2019-03-25T09:40:13.634Z,5.90
2019-03-25T09:43:03.976Z,5.67
2019-03-25T09:45:54.247Z,5.07
2019-03-25T09:48:37.453Z,6.10
2019-03-25T09:51:39.096Z,6.10
2019-03-25T09:54:23.712Z,5.23
2019-03-25T09:57:13.985Z,5.67
2019-03-25T09:59:56.921Z,6.43
2019-03-25T10:02:47.198Z,4.47
2019-03-25T10:05:29.595Z,3.93
2019-03-25T10:08:19.855Z,3.60
2019-03-25T10:11:02.463Z,4.30
2019-03-25T10:13:52.789Z,4.60
2019-03-25T10:16:35.056Z,4.63
2019-03-25T10:19:25.342Z,4.17
2019-03-25T10:22:15.697Z,3.87
2019-03-25T10:24:58.646Z,4.00
2019-03-25T10:27:40.756Z,4.93
2019-03-25T10:30:31.588Z,4.33
2019-03-25T10:33:22.027Z,4.30
2019-03-25T10:36:12.356Z,4.10
2019-03-25T10:41:59.156Z,4.60
2019-03-25T10:44:49.415Z,4.50
2019-03-25T10:47:58.466Z,4.30
2019-03-25T10:50:41.769Z,4.83
2019-03-25T10:53:24.747Z,4.13
2019-03-25T10:56:15.080Z,4.60
2019-03-25T10:59:05.410Z,4.43
2019-03-25T11:04:59.336Z,4.03
2019-03-25T11:07:49.758Z,4.17
2019-03-25T11:10:33.960Z,3.90
2019-03-25T11:13:24.211Z,4.47
2019-03-25T11:15:55.682Z,4.47
2019-03-25T11:18:45.958Z,4.60
2019-03-25T11:21:29.030Z,4.43
2019-03-25T11:24:19.312Z,4.70
2019-03-25T11:27:01.961Z,4.20
2019-03-25T11:29:52.236Z,3.63
2019-03-25T11:35:54.436Z,3.70
2019-03-25T11:38:44.794Z,3.40
2019-03-25T11:41:35.152Z,3.10
2019-03-25T11:44:25.626Z,3.30
2019-03-25T11:47:15.972Z,3.70
2019-03-25T11:50:06.530Z,2.73
2019-03-25T11:52:56.858Z,3.00
2019-03-25T11:55:47.212Z,2.40
2019-03-25T11:58:48.852Z,1.83
2019-03-25T12:01:31.270Z,1.97
2019-03-25T12:04:21.576Z,1.43
2019-03-25T12:07:04.366Z,1.63
2019-03-25T12:09:54.682Z,1.70
2019-03-25T12:12:37.552Z,1.83
2019-03-25T12:15:27.923Z,1.40
2019-03-25T12:18:18.214Z,1.10
2019-03-25T12:21:08.653Z,1.47
2019-03-25T12:23:58.917Z,1.50
2019-03-25T12:26:41.850Z,1.30
2019-03-25T12:29:32.157Z,2.13
2019-03-25T12:32:14.766Z,1.40
2019-03-25T12:35:05.339Z,1.10
2019-03-25T12:37:48.012Z,1.20
2019-03-25T12:40:38.305Z,1.00
2019-03-25T12:43:20.855Z,1.57
2019-03-25T12:46:11.117Z,1.27
2019-03-25T12:48:55.659Z,1.40
2019-03-25T12:51:48.385Z,1.10
2019-03-25T12:54:30.343Z,1.30
2019-03-25T12:57:20.637Z,1.13
2019-03-25T13:00:03.387Z,0.93
2019-03-25T13:02:53.687Z,1.20
2019-03-25T13:05:36.679Z,1.10
2019-03-25T13:08:33.044Z,1.17
2019-03-25T13:11:11.363Z,0.87
2019-03-25T13:14:01.805Z,1.10
2019-03-25T13:16:52.081Z,1.20
2019-03-25T13:25:05.777Z,0.97
2019-03-25T13:27:56.111Z,1.27
2019-03-25T13:30:46.437Z,1.20
2019-03-25T13:33:36.852Z,1.30
2019-03-25T13:36:27.383Z,1.40
2019-03-25T13:39:17.699Z,1.10
2019-03-25T13:42:07.972Z,1.00
2019-03-25T13:44:58.222Z,1.23
2019-03-25T13:47:40.675Z,1.13
2019-03-25T13:50:31.022Z,1.20
2019-03-25T13:53:21.344Z,1.03
2019-03-25T13:56:11.681Z,1.30
2019-03-25T13:59:01.979Z,1.10
2019-03-25T14:01:52.410Z,1.43
2019-03-25T14:04:42.734Z,0.97
2019-03-25T14:07:33.015Z,1.10
2019-03-25T14:10:23.264Z,1.17
2019-03-25T14:16:09.198Z,1.37
2019-03-25T14:18:59.462Z,1.00
2019-03-25T14:21:41.830Z,1.07
2019-03-25T14:27:43.110Z,1.33
2019-03-25T14:30:25.322Z,0.97
2019-03-25T14:33:15.694Z,1.43
2019-03-25T14:36:06.058Z,1.20
2019-03-25T14:38:56.311Z,1.10
2019-03-25T14:41:46.708Z,1.30
2019-03-25T14:44:37.058Z,1.50
2019-03-25T14:50:38.224Z,1.47
2019-03-25T14:53:21.089Z,1.50
2019-03-25T14:56:11.437Z,1.77
2019-03-25T14:59:01.728Z,1.27
2019-03-25T15:01:52.084Z,1.23
2019-03-25T15:04:42.363Z,1.30
2019-03-25T15:07:32.816Z,1.17
2019-03-25T15:10:23.231Z,1.40
2019-03-25T15:13:13.551Z,1.20
2019-03-25T15:16:04.027Z,1.47
2019-03-25T15:18:54.406Z,1.70
2019-03-25T15:21:44.675Z,1.70
2019-03-25T15:24:35.024Z,1.70
2019-03-25T15:32:53.498Z,1.90
2019-03-25T15:35:44.146Z,1.87
2019-03-25T15:38:34.439Z,1.63
2019-03-25T15:41:24.741Z,1.90
2019-03-25T15:44:15.123Z,1.80
2019-03-25T15:46:55.311Z,1.70
2019-03-25T15:49:32.237Z,1.77
2019-03-25T15:52:22.497Z,1.70
2019-03-25T15:55:04.785Z,2.27
2019-03-25T16:00:48.781Z,2.23
2019-03-25T16:03:39.172Z,2.40
2019-03-25T16:06:29.529Z,2.53
2019-03-25T16:09:19.905Z,2.30
2019-03-25T16:12:10.143Z,2.63
2019-03-25T16:14:53.139Z,2.13
2019-03-25T16:17:43.514Z,2.40
2019-03-25T16:20:33.796Z,1.90
2019-03-25T16:23:24.110Z,1.20
2019-03-25T16:26:14.349Z,2.00
2019-03-25T16:28:57.475Z,1.47
2019-03-25T16:31:47.789Z,1.30
2019-03-25T16:34:38.161Z,1.67
2019-03-25T16:40:31.055Z,1.10
2019-03-25T16:43:14.007Z,1.30
2019-03-25T16:46:04.311Z,1.20
2019-03-25T16:51:40.047Z,1.77
2019-03-25T16:54:32.679Z,1.20
2019-03-25T16:57:22.989Z,1.10
2019-03-25T17:00:13.336Z,1.03
2019-03-25T17:03:03.943Z,1.10
2019-03-25T17:05:54.269Z,1.57
2019-03-25T17:08:44.658Z,1.20
2019-03-25T17:11:35.061Z,1.03
2019-03-25T17:14:25.404Z,2.10
2019-03-25T17:17:15.742Z,2.20
2019-03-25T17:20:36.983Z,2.90
2019-03-25T17:23:20.089Z,3.10
2019-03-25T17:26:10.421Z,2.80
2019-03-25T17:28:52.851Z,2.50
2019-03-25T17:31:43.110Z,2.50
2019-03-25T17:37:20.530Z,2.97
2019-03-25T17:40:10.867Z,3.07
2019-03-25T17:43:01.203Z,2.80
2019-03-25T17:45:51.516Z,2.43
2019-03-25T17:48:41.815Z,3.30
2019-03-25T17:51:32.174Z,2.30
2019-03-25T17:54:22.618Z,2.10
2019-03-25T17:57:12.920Z,2.20
2019-03-25T18:00:03.344Z,2.30
2019-03-25T18:02:53.676Z,2.30
2019-03-25T18:05:43.918Z,2.20
2019-03-25T18:08:34.180Z,2.43
2019-03-25T18:11:24.444Z,2.10
2019-03-25T18:14:06.779Z,2.20
2019-03-25T18:16:38.264Z,2.00
2019-03-25T18:19:28.534Z,2.30
2019-03-25T18:22:18.992Z,2.10
2019-03-25T18:25:09.402Z,1.50
2019-03-25T18:27:59.695Z,2.10
2019-03-25T18:30:42.212Z,1.93
2019-03-25T18:36:25.932Z,1.30
2019-03-25T18:39:16.211Z,1.70
2019-03-25T18:42:06.494Z,2.10
2019-03-25T18:44:56.953Z,1.80
2019-03-25T18:48:06.149Z,1.50
2019-03-25T18:50:49.132Z,1.80
2019-03-25T18:53:39.404Z,1.80
2019-03-25T18:56:29.814Z,1.77
2019-03-25T19:02:38.078Z,2.10
2019-03-25T19:05:28.406Z,1.50
2019-03-25T19:08:17.866Z,1.90
2019-03-25T19:14:01.982Z,1.80
2019-03-25T19:16:52.314Z,1.60
2019-03-25T19:19:42.768Z,1.10
2019-03-25T19:22:25.621Z,1.50
2019-03-25T19:25:16.013Z,1.37
2019-03-25T19:28:06.333Z,1.53
2019-03-25T19:31:15.481Z,2.33
2019-03-25T19:33:58.070Z,2.40
2019-03-25T19:36:48.412Z,2.43
2019-03-25T19:39:38.758Z,2.30
2019-03-25T19:42:29.555Z,2.13
2019-03-25T19:45:19.930Z,1.90
2019-03-25T19:48:10.271Z,2.20
2019-03-25T19:51:00.573Z,2.00
2019-03-25T19:53:43.703Z,1.80
2019-03-25T19:56:34.022Z,2.00
2019-03-25T19:59:16.592Z,1.87
2019-03-25T20:02:18.111Z,1.83
2019-03-25T20:04:51.753Z,1.67
2019-03-25T20:07:42.229Z,2.20
2019-03-25T20:10:33.917Z,2.33
2019-03-25T20:13:18.302Z,2.70
2019-03-25T20:16:08.680Z,2.80
2019-03-25T20:18:58.981Z,2.50
2019-03-25T20:21:49.371Z,2.53
2019-03-25T20:24:39.669Z,2.70
2019-03-25T20:27:30.547Z,3.00
2019-03-25T20:33:14.801Z,2.50
2019-03-25T20:36:05.075Z,3.00
2019-03-25T20:38:55.425Z,2.90
2019-03-25T20:41:45.699Z,3.03
2019-03-25T20:44:35.993Z,3.30
2019-03-25T20:47:26.427Z,3.30
2019-03-25T20:50:16.713Z,3.33
2019-03-25T20:53:06.934Z,2.47
2019-03-25T20:55:50.027Z,3.03
2019-03-25T20:58:40.309Z,2.73
2019-03-25T21:01:23.018Z,3.13
2019-03-25T21:04:13.275Z,3.57
2019-03-25T21:06:56.484Z,3.37
2019-03-25T21:09:46.823Z,5.23
2019-03-25T21:12:29.202Z,6.27
2019-03-25T21:15:19.472Z,4.73
2019-03-25T21:17:50.981Z,3.80
2019-03-25T21:20:41.255Z,3.70
2019-03-25T21:23:24.329Z,3.70
2019-03-25T21:26:14.584Z,3.37
2019-03-25T21:28:57.290Z,3.70
2019-03-25T21:31:47.535Z,3.20
2019-03-25T21:34:30.637Z,3.60
2019-03-25T21:37:21.140Z,3.50
2019-03-25T21:40:03.407Z,3.30
2019-03-25T21:42:53.760Z,3.00
2019-03-25T21:45:36.519Z,3.13
2019-03-25T21:48:27.125Z,3.30
2019-03-25T21:51:10.486Z,3.03
2019-03-25T21:54:00.736Z,3.67
2019-03-25T21:56:43.048Z,3.83
2019-03-25T21:59:33.303Z,3.60
2019-03-25T22:02:16.285Z,3.77
2019-03-25T22:05:06.744Z,4.10
2019-03-25T22:07:49.028Z,4.10
2019-03-25T22:10:39.317Z,3.40
2019-03-25T22:13:22.292Z,3.67
2019-03-25T22:16:31.380Z,3.87
2019-03-25T22:19:13.950Z,3.50
2019-03-25T22:22:04.244Z,3.17
2019-03-25T22:24:46.754Z,3.13
2019-03-25T22:27:37.052Z,3.07
2019-03-25T22:30:19.627Z,3.50
2019-03-25T22:33:01.925Z,3.27
2019-03-25T22:35:52.289Z,3.50
2019-03-25T22:38:42.628Z,3.47
2019-03-25T22:41:35.084Z,3.60
2019-03-25T22:44:24.923Z,3.30
2019-03-25T22:47:08.974Z,3.10
2019-03-25T22:49:51.921Z,2.97
2019-03-25T22:52:42.145Z,2.90
2019-03-25T22:55:26.739Z,3.10
2019-03-25T22:58:35.840Z,3.40
2019-03-25T23:01:18.400Z,3.27
2019-03-25T23:04:27.481Z,3.10
2019-03-25T23:07:10.278Z,2.80
2019-03-25T23:10:00.540Z,3.13
2019-03-25T23:12:43.449Z,3.13
2019-03-25T23:15:33.743Z,3.07
2019-03-25T23:18:16.432Z,2.80
2019-03-25T23:21:06.790Z,3.10
2019-03-25T23:23:49.375Z,2.80
2019-03-25T23:26:39.624Z,2.77
2019-03-25T23:29:21.851Z,2.97
2019-03-25T23:32:12.163Z,3.23
2019-03-25T23:34:54.557Z,3.03
2019-03-25T23:37:44.837Z,3.30
2019-03-25T23:40:27.056Z,3.17
2019-03-25T23:43:17.359Z,3.20
2019-03-25T23:46:00.312Z,3.20
2019-03-25T23:48:50.781Z,3.00
2019-03-25T23:51:33.620Z,2.80
2019-03-25T23:54:23.939Z,3.53
2019-03-25T23:57:06.287Z,3.20
